createdAt,value
2022-11-05T00:00:05.860Z,91.30
2022-11-05T00:02:51.471Z,91.60
2022-11-05T00:05:38.187Z,92.60
2022-11-05T00:08:24.078Z,92.10
2022-11-05T00:10:52.164Z,92.00
2022-11-05T00:13:37.379Z,99.10
2022-11-05T00:16:34.858Z,90.80
2022-11-05T00:19:09.034Z,90.80
2022-11-05T00:21:56.754Z,90.70
2022-11-05T00:24:43.316Z,91.20
2022-11-05T00:27:11.929Z,91.60
2022-11-05T00:29:39.911Z,91.40
2022-11-05T00:32:07.878Z,91.70
2022-11-05T00:34:35.811Z,91.20
2022-11-05T00:37:05.126Z,91.80
2022-11-05T00:39:33.093Z,92.20
2022-11-05T00:42:18.395Z,91.50
2022-11-05T00:45:04.366Z,91.70
2022-11-05T00:47:50.933Z,90.40
2022-11-05T00:50:20.000Z,91.40
2022-11-05T00:52:59.549Z,91.30
2022-11-05T00:55:31.180Z,91.60
2022-11-05T00:57:59.404Z,92.50
2022-11-05T01:00:30.421Z,92.40
2022-11-05T01:03:00.268Z,92.10
2022-11-05T01:05:29.596Z,92.80
2022-11-05T01:07:59.455Z,93.30
2022-11-05T01:10:28.335Z,92.90
2022-11-05T01:12:56.361Z,92.40
2022-11-05T01:15:24.566Z,92.40
2022-11-05T01:17:53.335Z,93.60
2022-11-05T01:20:21.290Z,93.00
2022-11-05T01:22:49.327Z,92.60
2022-11-05T01:25:18.725Z,91.40
2022-11-05T01:27:46.874Z,91.20
2022-11-05T01:30:15.353Z,90.70
2022-11-05T01:32:43.478Z,91.40
2022-11-05T01:35:14.992Z,92.70
2022-11-05T01:37:43.069Z,93.00
2022-11-05T01:40:13.188Z,94.20
2022-11-05T01:42:42.553Z,94.70
2022-11-05T01:45:20.827Z,94.90
2022-11-05T01:48:03.414Z,95.80
2022-11-05T01:50:36.970Z,96.30
2022-11-05T01:53:11.074Z,96.10
2022-11-05T01:55:42.796Z,96.20
2022-11-05T01:58:17.413Z,96.50
2022-11-05T02:00:45.581Z,96.80
2022-11-05T02:03:15.645Z,95.80
2022-11-05T02:05:44.292Z,95.50
2022-11-05T02:08:18.836Z,95.80
2022-11-05T02:10:47.423Z,95.10
2022-11-05T02:13:16.714Z,94.70
2022-11-05T02:15:56.111Z,94.50
2022-11-05T02:18:32.944Z,94.80
2022-11-05T02:21:22.177Z,94.50
2022-11-05T02:24:26.164Z,94.00
2022-11-05T02:27:12.058Z,92.80
2022-11-05T02:30:10.636Z,94.40
2022-11-05T02:32:57.807Z,94.60
2022-11-05T02:35:39.346Z,95.10
2022-11-05T02:38:10.235Z,95.30
2022-11-05T02:40:47.764Z,95.30
2022-11-05T02:43:26.015Z,94.40
2022-11-05T02:46:03.740Z,95.00
2022-11-05T02:48:44.867Z,95.00
2022-11-05T02:51:19.169Z,95.30
2022-11-05T02:53:52.646Z,95.10
2022-11-05T02:56:25.458Z,95.20
2022-11-05T02:58:53.483Z,94.00
2022-11-05T03:01:21.535Z,93.10
2022-11-05T03:03:54.594Z,93.20
2022-11-05T03:06:58.889Z,93.80
2022-11-05T03:09:51.828Z,92.20
2022-11-05T03:12:27.696Z,94.40
2022-11-05T03:15:01.754Z,94.20
2022-11-05T03:17:37.444Z,94.90
2022-11-05T03:20:16.753Z,95.40
2022-11-05T03:22:50.562Z,95.40
2022-11-05T03:25:22.583Z,95.30
2022-11-05T03:27:56.809Z,95.40
2022-11-05T03:30:25.405Z,95.50
2022-11-05T03:32:59.430Z,95.00
2022-11-05T03:35:32.573Z,95.60
2022-11-05T03:38:09.156Z,95.30
2022-11-05T03:40:40.056Z,95.70
2022-11-05T03:43:10.099Z,95.80
2022-11-05T03:45:42.875Z,95.00
2022-11-05T03:48:14.039Z,95.60
2022-11-05T03:50:50.288Z,96.10
2022-11-05T03:53:22.742Z,96.30
2022-11-05T03:55:56.176Z,96.50
2022-11-05T03:58:25.809Z,96.30
2022-11-05T04:00:53.894Z,96.50
2022-11-05T04:03:21.846Z,99.90
2022-11-05T04:06:05.915Z,95.40
2022-11-05T04:08:51.201Z,95.10
2022-11-05T04:11:36.625Z,93.60
2022-11-05T04:14:04.564Z,94.00
2022-11-05T04:16:52.325Z,94.20
2022-11-05T04:19:41.518Z,93.40
2022-11-05T04:22:28.157Z,94.60
2022-11-05T04:24:56.110Z,93.50
2022-11-05T04:27:24.132Z,93.80
2022-11-05T04:30:09.702Z,93.50
2022-11-05T04:32:37.625Z,93.00
2022-11-05T04:35:05.988Z,94.50
2022-11-05T04:37:35.302Z,95.00
2022-11-05T04:40:03.278Z,94.30
2022-11-05T04:42:31.173Z,94.10
2022-11-05T04:44:59.123Z,95.00
2022-11-05T04:47:27.047Z,95.50
2022-11-05T04:49:54.979Z,95.70
2022-11-05T04:52:22.946Z,95.30
2022-11-05T04:54:52.232Z,95.80
2022-11-05T04:57:20.168Z,96.10
2022-11-05T04:59:49.379Z,96.60
2022-11-05T05:02:17.404Z,97.50
2022-11-05T05:04:45.875Z,97.50
2022-11-05T05:07:13.848Z,97.70
2022-11-05T05:09:41.780Z,98.40
2022-11-05T05:12:11.141Z,97.10
2022-11-05T05:14:39.204Z,97.40
2022-11-05T05:19:55.562Z,96.60
2022-11-05T05:22:22.615Z,98.70
2022-11-05T05:24:52.949Z,96.70
2022-11-05T05:27:23.417Z,97.10
2022-11-05T05:29:51.564Z,97.90
2022-11-05T05:32:19.497Z,96.40
2022-11-05T05:34:47.437Z,95.10
2022-11-05T05:37:15.373Z,95.40
2022-11-05T05:39:44.574Z,95.80
2022-11-05T05:42:12.729Z,95.90
2022-11-05T05:44:42.075Z,96.30
2022-11-05T05:47:10.008Z,96.70
2022-11-05T05:49:37.971Z,96.60
2022-11-05T05:52:06.477Z,95.90
2022-11-05T05:54:38.383Z,95.70
2022-11-05T05:57:09.383Z,95.60
2022-11-05T05:59:37.441Z,95.50
2022-11-05T06:02:06.930Z,94.90
2022-11-05T06:04:35.003Z,95.50
2022-11-05T06:07:02.920Z,95.90
2022-11-05T06:09:30.860Z,95.50
2022-11-05T06:11:58.989Z,95.00
2022-11-05T06:14:26.958Z,95.80
2022-11-05T06:16:54.886Z,96.00
2022-11-05T06:19:24.194Z,96.20
2022-11-05T06:21:52.176Z,97.30
2022-11-05T06:24:20.102Z,97.10
2022-11-05T06:26:48.011Z,97.40
2022-11-05T06:29:16.045Z,97.50
2022-11-05T06:31:44.009Z,96.30
2022-11-05T06:34:11.965Z,95.90
2022-11-05T06:36:41.334Z,96.20
2022-11-05T06:39:11.967Z,97.00
2022-11-05T06:42:04.095Z,97.20
2022-11-05T06:44:28.392Z,97.30
2022-11-05T06:46:56.358Z,97.00
2022-11-05T06:49:25.624Z,95.50
2022-11-05T06:51:54.952Z,95.30
2022-11-05T06:54:22.863Z,95.00
2022-11-05T06:56:50.821Z,95.30
2022-11-05T06:59:18.932Z,94.90
2022-11-05T07:01:47.087Z,95.30
2022-11-05T07:04:15.255Z,95.50
2022-11-05T07:06:43.177Z,95.90
2022-11-05T07:09:12.541Z,96.60
2022-11-05T07:11:40.456Z,97.90
2022-11-05T07:14:08.993Z,98.10
2022-11-05T07:16:36.920Z,98.60
2022-11-05T07:19:04.900Z,98.40
2022-11-05T07:21:32.844Z,99.10
2022-11-05T07:24:00.893Z,97.80
2022-11-05T07:26:34.381Z,97.60
2022-11-05T07:29:02.786Z,98.00
2022-11-05T07:31:30.754Z,98.20
2022-11-05T07:33:59.228Z,96.30
2022-11-05T07:36:27.206Z,96.70
2022-11-05T07:39:00.128Z,96.80
2022-11-05T07:41:30.263Z,95.80
2022-11-05T07:43:58.294Z,95.30
2022-11-05T07:46:26.267Z,95.40
2022-11-05T07:48:54.202Z,95.50
2022-11-05T07:51:22.279Z,95.90
2022-11-05T07:53:50.228Z,96.40
2022-11-05T07:56:18.136Z,96.20
2022-11-05T07:58:47.443Z,96.20
2022-11-05T08:01:15.462Z,94.70
2022-11-05T08:03:43.533Z,94.50
2022-11-05T08:06:11.496Z,94.50
2022-11-05T08:08:39.432Z,95.00
2022-11-05T08:11:08.318Z,95.30
2022-11-05T08:13:37.359Z,99.90
2022-11-05T08:16:08.121Z,95.70
2022-11-05T08:18:36.064Z,95.10
2022-11-05T08:21:06.113Z,95.80
2022-11-05T08:23:34.324Z,99.90
2022-11-05T08:26:05.102Z,95.60
2022-11-05T08:28:33.070Z,94.00
2022-11-05T08:31:02.054Z,94.20
2022-11-05T08:33:33.123Z,99.90
2022-11-05T08:36:04.030Z,94.90
2022-11-05T08:38:32.821Z,94.90
2022-11-05T08:41:01.000Z,94.20
2022-11-05T08:43:28.941Z,99.90
2022-11-05T08:45:56.933Z,95.80
2022-11-05T08:48:24.860Z,94.60
2022-11-05T08:50:54.251Z,94.90
2022-11-05T08:53:22.344Z,99.90
2022-11-05T08:55:51.443Z,92.60
2022-11-05T08:58:20.718Z,92.70
2022-11-05T09:00:50.736Z,92.40
2022-11-05T09:03:18.966Z,99.90
2022-11-05T09:05:47.138Z,92.80
2022-11-05T09:08:18.060Z,91.80
2022-11-05T09:10:47.048Z,91.50
2022-11-05T09:13:19.277Z,92.50
2022-11-05T09:15:48.501Z,93.80
2022-11-05T09:18:17.445Z,91.40
2022-11-05T09:20:45.734Z,88.30
2022-11-05T09:23:16.153Z,90.70
2022-11-05T09:25:44.849Z,91.60
2022-11-05T09:28:16.890Z,91.70
2022-11-05T09:30:46.712Z,86.70
2022-11-05T09:33:14.976Z,86.60
2022-11-05T09:35:43.565Z,91.10
2022-11-05T09:38:12.020Z,87.80
2022-11-05T09:40:45.176Z,88.90
2022-11-05T09:43:19.616Z,83.90
2022-11-05T09:45:50.091Z,85.50
2022-11-05T09:48:21.680Z,86.10
2022-11-05T09:50:50.863Z,85.20
2022-11-05T09:53:20.411Z,84.10
2022-11-05T09:58:30.357Z,81.20
2022-11-05T10:00:59.409Z,83.00
2022-11-05T10:03:30.424Z,78.30
2022-11-05T10:06:06.951Z,78.60
2022-11-05T10:08:42.526Z,81.90
2022-11-05T10:11:15.399Z,84.00
2022-11-05T10:13:48.171Z,81.60
2022-11-05T10:16:24.436Z,81.80
2022-11-05T10:18:56.212Z,84.10
2022-11-05T10:21:44.309Z,83.80
2022-11-05T10:24:16.828Z,80.50
2022-11-05T10:26:47.653Z,83.30
2022-11-05T10:29:23.656Z,84.20
2022-11-05T10:31:54.027Z,86.50
2022-11-05T10:34:24.626Z,92.00
2022-11-05T10:36:54.293Z,74.30
2022-11-05T10:39:23.424Z,76.40
2022-11-05T10:42:08.061Z,75.50
2022-11-05T10:44:42.365Z,73.80
2022-11-05T10:47:36.226Z,75.90
2022-11-05T10:50:09.672Z,69.40
2022-11-05T10:52:40.455Z,73.50
2022-11-05T10:55:17.573Z,72.50
2022-11-05T10:57:47.996Z,72.80
2022-11-05T11:00:28.304Z,75.10
2022-11-05T11:02:59.293Z,71.30
2022-11-05T11:05:30.766Z,70.90
2022-11-05T11:08:04.604Z,69.90
2022-11-05T11:10:50.525Z,73.10
2022-11-05T11:13:22.068Z,71.50
2022-11-05T11:15:51.663Z,70.30
2022-11-05T11:18:30.885Z,71.50
2022-11-05T11:21:08.577Z,71.80
2022-11-05T11:23:41.529Z,68.30
2022-11-05T11:26:11.303Z,69.30
2022-11-05T11:28:44.828Z,69.40
2022-11-05T11:31:15.871Z,70.00
2022-11-05T11:33:48.060Z,67.70
2022-11-05T11:36:18.686Z,65.30
2022-11-05T11:38:47.366Z,67.80
2022-11-05T11:41:25.140Z,63.70
2022-11-05T11:43:56.864Z,63.60
2022-11-05T11:46:26.867Z,64.60
2022-11-05T11:48:54.939Z,63.80
2022-11-05T11:51:34.237Z,64.40
2022-11-05T11:54:03.566Z,62.50
2022-11-05T11:56:43.093Z,62.80
2022-11-05T11:59:30.636Z,65.20
2022-11-05T12:02:35.368Z,65.60
2022-11-05T12:05:12.573Z,65.50
2022-11-05T12:07:49.756Z,68.00
2022-11-05T12:10:51.912Z,62.70
2022-11-05T12:13:44.389Z,62.40
2022-11-05T12:16:22.343Z,62.10
2022-11-05T12:19:01.263Z,59.70
2022-11-05T12:21:53.753Z,58.60
2022-11-05T12:24:51.890Z,74.90
2022-11-05T12:27:34.565Z,58.90
2022-11-05T12:30:06.478Z,57.40
2022-11-05T12:32:56.052Z,77.90
2022-11-05T12:35:45.671Z,57.20
2022-11-05T12:38:24.309Z,58.00
2022-11-05T12:41:05.501Z,57.50
2022-11-05T12:43:47.095Z,58.40
2022-11-05T12:46:26.711Z,56.60
2022-11-05T12:49:17.177Z,57.60
2022-11-05T12:51:57.324Z,58.00
2022-11-05T12:54:35.838Z,73.40
2022-11-05T12:57:05.517Z,57.00
2022-11-05T12:59:37.647Z,54.90
2022-11-05T13:02:17.921Z,57.10
2022-11-05T13:04:51.264Z,56.20
2022-11-05T13:07:27.984Z,56.80
2022-11-05T13:10:00.684Z,57.00
2022-11-05T13:12:32.955Z,57.50
2022-11-05T13:15:04.769Z,56.40
2022-11-05T13:17:36.805Z,56.60
2022-11-05T13:20:17.119Z,55.00
2022-11-05T13:22:50.604Z,55.10
2022-11-05T13:25:22.018Z,56.80
2022-11-05T13:27:56.108Z,57.20
2022-11-05T13:30:26.141Z,56.80
2022-11-05T13:32:59.057Z,58.40
2022-11-05T13:35:30.894Z,55.30
2022-11-05T13:38:22.206Z,56.50
2022-11-05T13:41:06.056Z,56.80
2022-11-05T13:43:57.400Z,55.70
2022-11-05T13:46:52.387Z,56.00
2022-11-05T13:49:46.198Z,53.40
2022-11-05T13:52:39.888Z,55.40
2022-11-05T13:55:28.699Z,56.80
2022-11-05T13:58:10.152Z,58.00
2022-11-05T14:00:43.992Z,57.50
2022-11-05T14:03:20.347Z,57.80
2022-11-05T14:05:55.437Z,57.60
2022-11-05T14:08:28.733Z,58.80
2022-11-05T14:11:04.852Z,59.10
2022-11-05T14:13:36.082Z,58.30
2022-11-05T14:16:07.535Z,58.10
2022-11-05T14:18:44.274Z,58.00
2022-11-05T14:21:34.626Z,60.40
2022-11-05T14:24:26.183Z,58.90
2022-11-05T14:27:30.328Z,59.00
2022-11-05T14:29:59.734Z,56.60
2022-11-05T14:32:43.340Z,59.30
2022-11-05T14:35:36.281Z,62.70
2022-11-05T14:38:06.138Z,60.70
2022-11-05T14:40:37.802Z,59.50
2022-11-05T14:45:39.213Z,63.60
2022-11-05T14:48:24.472Z,63.30
2022-11-05T14:50:52.676Z,64.60
2022-11-05T14:53:32.098Z,63.30
2022-11-05T14:56:04.327Z,65.30
2022-11-05T14:58:35.673Z,68.30
2022-11-05T15:01:07.648Z,69.80
2022-11-05T15:04:04.444Z,66.30
2022-11-05T15:06:35.205Z,67.40
2022-11-05T15:09:29.956Z,68.40
2022-11-05T15:12:19.453Z,62.80
2022-11-05T15:14:55.489Z,72.20
2022-11-05T15:17:29.951Z,73.80
2022-11-05T15:20:08.014Z,75.60
2022-11-05T15:22:38.104Z,77.60
2022-11-05T15:25:15.561Z,81.00
2022-11-05T15:28:00.512Z,80.80
2022-11-05T15:30:28.555Z,78.50
2022-11-05T15:33:09.800Z,80.60
2022-11-05T15:35:42.494Z,79.30
2022-11-05T15:38:27.805Z,79.50
2022-11-05T15:41:03.628Z,80.20
2022-11-05T15:43:31.925Z,82.20
2022-11-05T15:46:05.828Z,84.00
2022-11-05T15:48:36.585Z,84.40
2022-11-05T15:51:04.865Z,84.20
2022-11-05T15:54:28.529Z,85.00
2022-11-05T15:56:50.863Z,82.90
2022-11-05T15:59:21.428Z,84.20
2022-11-05T16:01:52.258Z,87.10
2022-11-05T16:04:23.799Z,88.60
2022-11-05T16:06:54.769Z,89.90
2022-11-05T16:09:24.751Z,90.30
2022-11-05T16:12:10.051Z,90.40
2022-11-05T16:14:38.014Z,91.10
2022-11-05T16:17:18.353Z,90.10
2022-11-05T16:19:48.395Z,91.00
2022-11-05T16:22:16.685Z,91.30
2022-11-05T16:24:45.401Z,92.00
2022-11-05T16:27:19.384Z,92.30
2022-11-05T16:29:53.765Z,92.60
2022-11-05T16:32:30.680Z,92.50
2022-11-05T16:35:02.128Z,93.00
2022-11-05T16:37:40.029Z,91.90
2022-11-05T16:40:14.414Z,91.60
2022-11-05T16:42:43.034Z,90.30
2022-11-05T16:45:13.965Z,96.60
2022-11-05T16:47:42.844Z,88.90
2022-11-05T16:50:24.105Z,90.30
2022-11-05T16:52:52.349Z,89.80
2022-11-05T16:55:21.136Z,99.90
2022-11-05T16:57:53.488Z,92.90
2022-11-05T17:00:22.563Z,92.90
2022-11-05T17:02:50.685Z,95.30
2022-11-05T17:05:24.047Z,97.60
2022-11-05T17:07:52.590Z,98.30
2022-11-05T17:10:21.459Z,98.80
2022-11-05T17:12:50.027Z,98.00
2022-11-05T17:15:24.621Z,96.50
2022-11-05T17:17:53.895Z,98.20
2022-11-05T17:20:34.983Z,97.50
2022-11-05T17:23:07.145Z,97.20
2022-11-05T17:25:35.483Z,96.60
2022-11-05T17:28:03.901Z,96.50
2022-11-05T17:33:00.639Z,97.50
2022-11-05T17:35:30.028Z,98.10
2022-11-05T17:45:25.086Z,99.90
2022-11-05T17:47:53.101Z,99.90
2022-11-05T17:50:21.295Z,99.90
2022-11-05T17:52:50.675Z,99.90
2022-11-05T17:57:48.491Z,99.90
2022-11-05T18:00:19.063Z,99.90
2022-11-05T18:02:48.550Z,99.90
2022-11-05T18:07:46.102Z,99.90
2022-11-05T18:10:15.862Z,99.90
2022-11-05T18:12:44.788Z,99.90
2022-11-05T18:17:41.587Z,99.20
